Time;durP1;ratioP1;P1;durP2;ratioP2;P2;SDS_P1;SDS_P2;PMS_P1;PMS_P2;Temp;Humidity;BMP_temperature;BMP_pressure;BME280_temperature;BME280_humidity;BME280_pressure;Samples;Min_cycle;Max_cycle;Signal;HPM_P1;HPM_P2
2022/08/11 00:01:54;;;;;;;;;;;21.60;58.70;;;;;;4978922;28;20016;-79
2022/08/11 00:04:23;;;;;;;;;;;21.60;58.80;;;;;;4965986;28;19969;-78
2022/08/11 00:06:50;;;;;;;;;;;21.50;58.80;;;;;;4966557;28;20365;-79
2022/08/11 00:09:21;;;;;;;;;;;21.50;58.90;;;;;;4981380;28;19932;-78
2022/08/11 00:11:49;;;;;;;;;;;21.50;58.90;;;;;;4964065;28;19926;-79
2022/08/11 00:14:18;;;;;;;;;;;21.50;59.00;;;;;;4983863;28;19933;-78
2022/08/11 00:16:53;;;;;;;;;;;21.40;58.90;;;;;;4978633;28;19938;-78
2022/08/11 00:19:23;;;;;;;;;;;21.40;59.10;;;;;;4978989;28;19937;-78
2022/08/11 00:21:50;;;;;;;;;;;21.40;59.20;;;;;;4982726;28;19930;-77
2022/08/11 00:24:17;;;;;;;;;;;21.40;59.20;;;;;;4984201;28;19926;-78
2022/08/11 00:26:47;;;;;;;;;;;21.30;59.30;;;;;;4983418;28;20344;-77
2022/08/11 00:29:16;;;;;;;;;;;21.30;59.30;;;;;;4986064;28;20004;-77
2022/08/11 00:31:46;;;;;;;;;;;21.30;59.40;;;;;;4986351;28;19934;-78
2022/08/11 00:34:13;;;;;;;;;;;21.30;59.50;;;;;;4984959;28;19929;-78
2022/08/11 00:36:43;;;;;;;;;;;21.30;59.60;;;;;;4982094;28;20796;-78
2022/08/11 00:39:11;;;;;;;;;;;21.20;59.60;;;;;;4984197;28;19940;-78
2022/08/11 00:41:40;;;;;;;;;;;21.20;59.80;;;;;;4986267;28;19932;-78
2022/08/11 00:44:12;;;;;;;;;;;21.20;59.80;;;;;;4989165;28;20368;-80
2022/08/11 00:46:45;;;;;;;;;;;21.20;59.80;;;;;;4983829;28;19934;-77
2022/08/11 00:49:18;;;;;;;;;;;21.10;59.90;;;;;;4986378;28;19973;-77
2022/08/11 00:51:53;;;;;;;;;;;21.10;59.90;;;;;;4983323;28;19929;-78
2022/08/11 00:54:30;;;;;;;;;;;21.10;60.00;;;;;;4980279;28;19933;-77
2022/08/11 00:57:15;;;;;;;;;;;21.10;60.10;;;;;;4980029;28;19934;-78
2022/08/11 01:00:00;;;;;;;;;;;21.10;60.20;;;;;;4984053;28;19930;-78
2022/08/11 01:02:41;;;;;;;;;;;21.00;60.20;;;;;;4967708;28;20194;-78
2022/08/11 01:05:26;;;;;;;;;;;21.00;60.30;;;;;;4982062;28;19992;-78
2022/08/11 01:08:11;;;;;;;;;;;21.00;60.40;;;;;;4985477;28;19926;-78
2022/08/11 01:10:48;;;;;;;;;;;21.00;60.50;;;;;;4982324;28;20234;-78
2022/08/11 01:13:18;;;;;;;;;;;21.00;60.50;;;;;;4984541;28;19953;-78
2022/08/11 01:16:06;;;;;;;;;;;20.90;60.50;;;;;;4983436;28;20435;-78
2022/08/11 01:18:50;;;;;;;;;;;20.90;60.50;;;;;;4983981;28;19933;-78
2022/08/11 01:21:32;;;;;;;;;;;20.90;60.50;;;;;;4965106;28;19980;-78
2022/08/11 01:24:17;;;;;;;;;;;20.90;60.60;;;;;;4985701;28;19980;-78
2022/08/11 01:26:59;;;;;;;;;;;20.80;60.50;;;;;;4984117;28;19936;-78
2022/08/11 01:29:50;;;;;;;;;;;20.80;60.60;;;;;;4946050;28;19934;-78
2022/08/11 01:32:43;;;;;;;;;;;20.80;60.70;;;;;;4928780;28;19933;-77
2022/08/11 01:35:24;;;;;;;;;;;20.80;60.80;;;;;;4939520;28;19926;-78
2022/08/11 01:38:09;;;;;;;;;;;20.80;60.80;;;;;;4980474;28;19930;-78
2022/08/11 01:40:57;;;;;;;;;;;20.80;61.00;;;;;;4973986;28;20371;-79
2022/08/11 01:47:02;;;;;;;;;;;20.70;61.10;;;;;;4945294;28;20241;-79
2022/08/11 01:49:32;;;;;;;;;;;20.70;61.10;;;;;;4968392;28;19934;-78
2022/08/11 01:52:07;;;;;;;;;;;20.60;61.20;;;;;;4981964;28;20025;-79
2022/08/11 01:54:40;;;;;;;;;;;20.60;61.30;;;;;;4980482;28;20025;-79
2022/08/11 01:57:12;;;;;;;;;;;20.60;61.40;;;;;;4962201;28;19945;-79
2022/08/11 01:59:47;;;;;;;;;;;20.60;62.20;;;;;;4983977;28;20136;-77
2022/08/11 02:05:18;;;;;;;;;;;20.50;61.60;;;;;;4980098;28;19921;-79
2022/08/11 02:07:57;;;;;;;;;;;20.50;61.60;;;;;;4982054;28;20451;-79
2022/08/11 02:13:14;;;;;;;;;;;20.40;61.60;;;;;;4969217;28;20270;-79
2022/08/11 02:15:45;;;;;;;;;;;20.50;61.80;;;;;;4983366;28;20016;-79
2022/08/11 02:18:16;;;;;;;;;;;20.40;61.90;;;;;;4978885;28;20001;-78
2022/08/11 02:23:42;;;;;;;;;;;20.40;62.10;;;;;;4985600;28;19964;-79
2022/08/11 02:26:16;;;;;;;;;;;20.30;62.20;;;;;;4978854;28;19961;-79
2022/08/11 02:28:49;;;;;;;;;;;20.30;62.40;;;;;;4982053;28;20387;-79
2022/08/11 02:34:22;;;;;;;;;;;20.30;62.70;;;;;;4949767;28;20450;-79
2022/08/11 02:36:52;;;;;;;;;;;20.20;62.70;;;;;;4983288;28;20032;-79
2022/08/11 02:39:20;;;;;;;;;;;20.20;62.80;;;;;;4982096;28;19930;-79
2022/08/11 02:44:57;;;;;;;;;;;20.20;63.10;;;;;;4942762;28;19930;-78
2022/08/11 02:47:32;;;;;;;;;;;20.20;63.20;;;;;;4958767;28;19965;-79
2022/08/11 02:50:02;;;;;;;;;;;20.10;63.00;;;;;;4984879;28;20423;-78
2022/08/11 02:52:35;;;;;;;;;;;20.10;63.10;;;;;;4980490;28;19921;-79
2022/08/11 02:55:10;;;;;;;;;;;20.10;63.10;;;;;;4985216;28;19933;-79
2022/08/11 02:57:40;;;;;;;;;;;20.10;63.20;;;;;;4983866;28;20228;-78
2022/08/11 03:00:09;;;;;;;;;;;20.10;63.30;;;;;;4963234;28;19985;-79
2022/08/11 03:02:47;;;;;;;;;;;20.00;63.40;;;;;;4954753;28;20593;-78
2022/08/11 03:05:26;;;;;;;;;;;20.00;63.60;;;;;;4981014;28;20020;-79
2022/08/11 03:08:05;;;;;;;;;;;20.00;63.70;;;;;;4982370;28;19932;-79
2022/08/11 03:10:36;;;;;;;;;;;20.00;63.70;;;;;;4964104;28;19972;-78
2022/08/11 03:18:56;;;;;;;;;;;19.90;63.90;;;;;;4960360;28;19968;-78
2022/08/11 03:21:25;;;;;;;;;;;19.90;64.10;;;;;;4978122;28;20363;-79
2022/08/11 03:23:56;;;;;;;;;;;19.90;64.00;;;;;;4978392;28;20393;-79
2022/08/11 03:26:28;;;;;;;;;;;19.90;64.10;;;;;;4962426;28;19938;-79
2022/08/11 03:29:04;;;;;;;;;;;19.80;64.30;;;;;;4982078;28;19934;-79
2022/08/11 03:31:33;;;;;;;;;;;19.80;64.40;;;;;;4978668;28;20346;-79
2022/08/11 03:34:02;;;;;;;;;;;19.80;64.30;;;;;;4985668;28;19930;-79
2022/08/11 03:36:56;;;;;;;;;;;19.80;64.40;;;;;;4978851;28;20028;-79
2022/08/11 03:39:29;;;;;;;;;;;19.80;64.50;;;;;;4976741;28;19961;-79
2022/08/11 03:42:00;;;;;;;;;;;19.70;64.50;;;;;;4980312;28;19957;-79
2022/08/11 03:44:37;;;;;;;;;;;19.70;64.60;;;;;;4965080;28;20040;-79
2022/08/11 03:47:23;;;;;;;;;;;19.70;64.60;;;;;;4983070;28;19981;-79
2022/08/11 03:50:00;;;;;;;;;;;19.70;64.60;;;;;;4982835;28;19926;-81
2022/08/11 03:52:33;;;;;;;;;;;19.70;64.70;;;;;;4984923;28;19930;-78
2022/08/11 03:55:04;;;;;;;;;;;19.60;64.60;;;;;;4982587;28;19980;-79
2022/08/11 03:57:50;;;;;;;;;;;19.60;64.70;;;;;;4981834;28;19934;-78
2022/08/11 04:00:23;;;;;;;;;;;19.60;64.70;;;;;;4976198;28;19926;-79
2022/08/11 04:03:17;;;;;;;;;;;19.60;64.80;;;;;;4977738;28;19926;-79
2022/08/11 04:06:03;;;;;;;;;;;19.60;65.00;;;;;;4952973;28;19934;-79
2022/08/11 04:08:54;;;;;;;;;;;19.50;64.90;;;;;;4970085;28;19960;-79
2022/08/11 04:11:38;;;;;;;;;;;19.50;64.90;;;;;;4981785;28;20482;-78
2022/08/11 04:17:08;;;;;;;;;;;19.50;64.80;;;;;;4973794;28;19933;-78
2022/08/11 04:19:49;;;;;;;;;;;19.50;64.80;;;;;;4979542;28;20325;-78
2022/08/11 04:22:34;;;;;;;;;;;19.50;65.40;;;;;;4987810;28;19929;-78
2022/08/11 04:25:16;;;;;;;;;;;19.40;64.70;;;;;;4985372;28;20016;-78
2022/08/11 04:27:53;;;;;;;;;;;19.40;64.70;;;;;;4984878;28;19970;-78
2022/08/11 04:30:27;;;;;;;;;;;19.40;64.80;;;;;;4983737;28;19972;-79
2022/08/11 04:33:09;;;;;;;;;;;19.40;64.90;;;;;;4969951;28;19948;-78
2022/08/11 04:35:43;;;;;;;;;;;19.40;64.90;;;;;;4984359;28;19930;-78
2022/08/11 04:38:34;;;;;;;;;;;19.40;65.00;;;;;;4974057;28;20159;-78
2022/08/11 04:41:15;;;;;;;;;;;19.30;64.90;;;;;;4989327;28;19926;-79
2022/08/11 04:44:00;;;;;;;;;;;19.30;65.00;;;;;;4969943;28;19926;-79
2022/08/11 04:46:48;;;;;;;;;;;19.30;65.00;;;;;;4986197;28;19929;-78
2022/08/11 05:05:29;;;;;;;;;;;19.20;65.50;;;;;;4986097;28;19930;-78
2022/08/11 05:07:09;;;;;;;;;;;19.20;65.60;;;;;;4980818;28;20340;-78
2022/08/11 05:09:48;;;;;;;;;;;19.20;65.70;;;;;;4979006;28;19926;-78
2022/08/11 05:12:29;;;;;;;;;;;19.20;65.80;;;;;;4981907;28;20332;-78
2022/08/11 05:37:09;;;;;;;;;;;19.00;66.10;;;;;;4984065;28;19957;-79
2022/08/11 05:56:19;;;;;;;;;;;18.80;69.30;;;;;;4969732;28;19930;-80
2022/08/11 05:58:50;;;;;;;;;;;18.70;69.40;;;;;;4989352;28;19957;-79
2022/08/11 06:01:22;;;;;;;;;;;18.80;69.40;;;;;;4990596;28;20550;-79
2022/08/11 06:06:39;;;;;;;;;;;18.80;69.40;;;;;;4989023;28;19922;-80
2022/08/11 06:09:06;;;;;;;;;;;18.90;69.70;;;;;;4991218;28;19973;-80
2022/08/11 06:11:38;;;;;;;;;;;18.90;69.70;;;;;;4991033;28;20447;-79
2022/08/11 06:14:06;;;;;;;;;;;18.90;70.00;;;;;;4989665;28;19980;-79
2022/08/11 06:16:34;;;;;;;;;;;18.90;70.10;;;;;;4989969;28;19926;-79
2022/08/11 06:19:01;;;;;;;;;;;18.90;70.10;;;;;;4988066;28;20379;-79
2022/08/11 06:21:28;;;;;;;;;;;18.90;70.30;;;;;;4990796;28;19934;-79
2022/08/11 06:23:56;;;;;;;;;;;19.00;70.40;;;;;;4990434;28;19964;-80
2022/08/11 06:26:22;;;;;;;;;;;19.00;70.50;;;;;;4986260;28;19926;-79
2022/08/11 06:28:49;;;;;;;;;;;19.00;70.40;;;;;;4990359;28;19988;-79
2022/08/11 06:31:18;;;;;;;;;;;19.00;70.50;;;;;;4987643;28;19976;-79
2022/08/11 06:33:52;;;;;;;;;;;19.00;70.60;;;;;;4984594;28;19933;-78
2022/08/11 06:36:23;;;;;;;;;;;19.00;70.50;;;;;;4989705;28;19957;-79
2022/08/11 06:38:56;;;;;;;;;;;19.10;70.80;;;;;;4989331;28;19933;-79
2022/08/11 06:41:31;;;;;;;;;;;19.10;70.70;;;;;;4990304;28;19929;-79
2022/08/11 06:44:13;;;;;;;;;;;19.10;70.80;;;;;;4989702;28;20012;-79
2022/08/11 06:46:43;;;;;;;;;;;19.10;70.90;;;;;;4987398;28;20041;-79
2022/08/11 06:51:53;;;;;;;;;;;19.20;71.00;;;;;;4987587;28;19942;-79
2022/08/11 06:54:20;;;;;;;;;;;19.20;70.80;;;;;;4975181;28;20311;-79
2022/08/11 07:02:24;;;;;;;;;;;19.20;71.00;;;;;;4987861;28;19937;-79
2022/08/11 07:04:53;;;;;;;;;;;19.30;71.20;;;;;;4988906;28;20397;-79
2022/08/11 07:16:00;;;;;;;;;;;19.30;71.40;;;;;;4984150;28;19936;-80
2022/08/11 07:29:42;;;;;;;;;;;19.50;71.60;;;;;;4988962;28;20018;-79
2022/08/11 07:32:14;;;;;;;;;;;19.50;71.70;;;;;;4984064;28;19934;-79
2022/08/11 07:34:45;;;;;;;;;;;19.50;72.00;;;;;;4972306;28;19930;-80
2022/08/11 07:37:16;;;;;;;;;;;19.50;72.00;;;;;;4988729;28;19933;-79
2022/08/11 07:39:44;;;;;;;;;;;19.50;72.20;;;;;;4969014;28;19926;-80
2022/08/11 07:42:13;;;;;;;;;;;19.50;72.50;;;;;;4987610;28;20230;-79
2022/08/11 07:52:54;;;;;;;;;;;19.50;72.20;;;;;;4979519;28;19977;-79
2022/08/11 07:55:24;;;;;;;;;;;19.60;72.40;;;;;;4987958;28;20020;-79
2022/08/11 08:19:52;;;;;;;;;;;19.60;72.30;;;;;;4986731;28;19945;-79
2022/08/11 08:22:21;;;;;;;;;;;19.60;72.40;;;;;;4985676;28;19973;-79
2022/08/11 08:24:48;;;;;;;;;;;19.70;72.60;;;;;;4986636;28;19930;-79
2022/08/11 08:27:16;;;;;;;;;;;19.70;72.70;;;;;;4977386;28;19988;-80
2022/08/11 08:32:43;;;;;;;;;;;19.70;72.90;;;;;;4947912;28;20401;-79
2022/08/11 08:35:11;;;;;;;;;;;19.70;72.90;;;;;;4942783;28;19926;-79
2022/08/11 08:37:39;;;;;;;;;;;19.70;72.70;;;;;;4990377;28;19934;-80
2022/08/11 08:40:07;;;;;;;;;;;19.70;72.60;;;;;;4970974;28;19941;-79
2022/08/11 08:42:37;;;;;;;;;;;19.70;72.60;;;;;;4985484;28;19932;-79
2022/08/11 08:45:05;;;;;;;;;;;19.80;72.80;;;;;;4988005;28;19968;-79
2022/08/11 08:47:35;;;;;;;;;;;19.80;72.60;;;;;;4989010;28;19956;-79
2022/08/11 08:50:04;;;;;;;;;;;19.80;73.00;;;;;;4992433;28;20004;-79
2022/08/11 08:52:37;;;;;;;;;;;19.80;72.20;;;;;;4986354;28;19965;-79
2022/08/11 08:55:07;;;;;;;;;;;19.80;72.10;;;;;;4992079;28;19926;-79
2022/08/11 08:57:35;;;;;;;;;;;19.90;72.10;;;;;;4992154;28;19926;-79
2022/08/11 09:00:04;;;;;;;;;;;19.90;72.00;;;;;;4985994;28;20024;-79
2022/08/11 09:02:32;;;;;;;;;;;19.90;72.00;;;;;;4987698;28;20416;-79
2022/08/11 09:05:00;;;;;;;;;;;19.90;72.00;;;;;;4989898;28;20128;-79
2022/08/11 09:07:27;;;;;;;;;;;19.90;71.90;;;;;;4969392;28;19933;-79
2022/08/11 09:09:58;;;;;;;;;;;20.00;71.90;;;;;;4988922;28;19981;-79
2022/08/11 09:12:28;;;;;;;;;;;20.00;71.80;;;;;;4990351;28;20305;-79
2022/08/11 09:15:03;;;;;;;;;;;20.00;71.70;;;;;;4990757;28;20005;-80
2022/08/11 09:17:35;;;;;;;;;;;20.00;71.80;;;;;;4986760;28;19933;-79
2022/08/11 09:20:04;;;;;;;;;;;20.10;71.80;;;;;;4989801;28;19930;-79
2022/08/11 09:28:06;;;;;;;;;;;20.10;71.30;;;;;;4990744;28;20341;-79
2022/08/11 09:30:35;;;;;;;;;;;20.10;71.10;;;;;;4990961;28;20414;-79
2022/08/11 09:33:04;;;;;;;;;;;20.10;71.20;;;;;;4973894;28;19942;-80
2022/08/11 09:35:33;;;;;;;;;;;20.20;70.70;;;;;;4969651;28;19969;-79
2022/08/11 09:40:46;;;;;;;;;;;20.20;70.60;;;;;;4989267;28;19975;-79
2022/08/11 09:46:03;;;;;;;;;;;20.30;70.30;;;;;;4985572;28;19992;-79
2022/08/11 09:48:32;;;;;;;;;;;20.40;70.40;;;;;;4990632;28;19929;-79
2022/08/11 09:51:00;;;;;;;;;;;20.40;69.90;;;;;;4991239;28;19933;-79
2022/08/11 09:53:28;;;;;;;;;;;20.40;69.70;;;;;;4987609;28;20356;-79
2022/08/11 09:55:55;;;;;;;;;;;20.50;69.90;;;;;;4984488;28;19925;-79
2022/08/11 09:58:23;;;;;;;;;;;20.50;69.90;;;;;;4987204;28;20305;-79
2022/08/11 10:00:51;;;;;;;;;;;20.50;69.40;;;;;;4988891;28;19945;-79
2022/08/11 10:03:19;;;;;;;;;;;20.50;69.50;;;;;;4973346;28;19980;-79
2022/08/11 10:08:32;;;;;;;;;;;20.60;69.80;;;;;;4984460;28;19947;-80
2022/08/11 10:10:59;;;;;;;;;;;20.60;69.50;;;;;;4970351;28;19910;-79
2022/08/11 10:13:32;;;;;;;;;;;20.60;69.20;;;;;;4977149;28;19945;-79
2022/08/11 10:16:00;;;;;;;;;;;20.70;69.00;;;;;;4988862;28;19932;-79
2022/08/11 10:18:48;;;;;;;;;;;20.70;69.40;;;;;;4987288;28;19934;-79
2022/08/11 10:21:17;;;;;;;;;;;20.70;69.10;;;;;;4968989;28;19980;-79
2022/08/11 10:34:46;;;;;;;;;;;20.80;68.30;;;;;;4986871;28;20024;-79
2022/08/11 10:37:14;;;;;;;;;;;20.90;68.30;;;;;;4985195;28;19926;-80
2022/08/11 10:39:41;;;;;;;;;;;20.90;68.70;;;;;;4988011;28;19972;-79
2022/08/11 10:44:57;;;;;;;;;;;20.90;68.60;;;;;;4990198;28;19936;-79
2022/08/11 10:47:37;;;;;;;;;;;21.00;69.10;;;;;;4985537;28;19980;-79
2022/08/11 11:01:08;;;;;;;;;;;21.40;68.90;;;;;;4966308;28;19995;-79
2022/08/11 11:03:35;;;;;;;;;;;21.50;69.30;;;;;;4987154;28;19926;-79
2022/08/11 11:06:06;;;;;;;;;;;21.40;68.30;;;;;;4989489;28;19952;-79
2022/08/11 11:11:19;;;;;;;;;;;21.30;68.40;;;;;;4984054;28;19929;-79
2022/08/11 11:19:23;;;;;;;;;;;21.30;68.00;;;;;;4990741;28;20154;-77
2022/08/11 11:21:51;;;;;;;;;;;21.40;68.30;;;;;;4991515;28;19964;-78
2022/08/11 11:24:32;;;;;;;;;;;21.40;68.00;;;;;;4992162;28;19926;-78
2022/08/11 11:27:02;;;;;;;;;;;21.40;68.50;;;;;;4986381;28;19968;-79
2022/08/11 11:29:35;;;;;;;;;;;21.40;67.80;;;;;;4984828;28;20316;-78
2022/08/11 11:32:11;;;;;;;;;;;21.40;68.20;;;;;;4987665;28;19980;-79
2022/08/11 11:35:00;;;;;;;;;;;21.60;68.00;;;;;;4990890;28;19929;-78
2022/08/11 11:37:29;;;;;;;;;;;21.80;68.30;;;;;;4983969;28;19930;-78
2022/08/11 11:39:57;;;;;;;;;;;21.80;67.90;;;;;;4984257;28;20405;-78
2022/08/11 11:42:24;;;;;;;;;;;21.70;67.80;;;;;;4991938;28;19926;-78
2022/08/11 11:44:51;;;;;;;;;;;21.70;67.50;;;;;;4971041;28;20518;-78
2022/08/11 11:47:21;;;;;;;;;;;21.70;67.70;;;;;;4972068;28;19969;-78
2022/08/11 11:49:49;;;;;;;;;;;21.70;67.50;;;;;;4973290;28;19933;-78
2022/08/11 11:52:17;;;;;;;;;;;21.80;66.90;;;;;;4975923;28;19981;-79
2022/08/11 11:54:45;;;;;;;;;;;21.80;66.40;;;;;;4979292;28;20344;-79
2022/08/11 12:02:47;;;;;;;;;;;21.60;66.80;;;;;;4967585;28;20473;-79
2022/08/11 12:05:14;;;;;;;;;;;21.60;67.10;;;;;;4978122;28;20015;-79
2022/08/11 12:10:26;;;;;;;;;;;21.60;67.30;;;;;;4974952;28;19937;-79
2022/08/11 12:15:38;;;;;;;;;;;21.60;67.10;;;;;;4980944;28;19925;-79
2022/08/11 12:18:06;;;;;;;;;;;21.60;67.00;;;;;;4963982;28;19930;-79
2022/08/11 12:20:33;;;;;;;;;;;21.70;67.10;;;;;;4971840;28;19984;-79
2022/08/11 12:28:29;;;;;;;;;;;22.10;65.00;;;;;;4973879;28;20325;-79
2022/08/11 12:30:56;;;;;;;;;;;22.10;65.30;;;;;;4960938;28;19926;-79
2022/08/11 12:33:25;;;;;;;;;;;22.10;65.40;;;;;;4973740;28;19929;-79
2022/08/11 12:35:55;;;;;;;;;;;22.10;65.40;;;;;;4975999;28;19980;-80
2022/08/11 12:38:23;;;;;;;;;;;22.10;65.70;;;;;;4958333;28;19937;-80
2022/08/11 12:46:21;;;;;;;;;;;22.10;65.70;;;;;;4977627;28;19929;-78
2022/08/11 12:51:58;;;;;;;;;;;22.10;65.60;;;;;;4971185;28;19926;-78
2022/08/11 12:54:27;;;;;;;;;;;22.10;65.80;;;;;;4979181;28;19980;-79
2022/08/11 13:05:13;;;;;;;;;;;22.30;66.50;;;;;;4970594;28;19988;-79
2022/08/11 13:07:42;;;;;;;;;;;22.30;66.10;;;;;;4975725;28;20417;-78
2022/08/11 13:10:10;;;;;;;;;;;22.40;66.20;;;;;;4949092;28;19937;-78
2022/08/11 13:12:49;;;;;;;;;;;22.40;66.50;;;;;;4969579;28;20065;-78
2022/08/11 13:15:17;;;;;;;;;;;22.40;66.60;;;;;;4960297;28;20306;-78
2022/08/11 13:17:46;;;;;;;;;;;22.50;66.40;;;;;;4956036;28;19941;-77
2022/08/11 13:20:16;;;;;;;;;;;22.50;66.00;;;;;;4968274;28;20343;-76
2022/08/11 13:22:44;;;;;;;;;;;22.50;66.00;;;;;;4967383;28;20436;-76
2022/08/11 13:25:12;;;;;;;;;;;22.60;66.30;;;;;;4971089;28;19937;-76
2022/08/11 13:27:40;;;;;;;;;;;22.60;66.30;;;;;;4965050;28;20033;-76
2022/08/11 13:32:52;;;;;;;;;;;22.70;65.40;;;;;;4969410;28;19977;-78
2022/08/11 13:35:22;;;;;;;;;;;22.80;65.50;;;;;;4980409;28;19932;-75
2022/08/11 13:37:50;;;;;;;;;;;22.80;65.80;;;;;;4978888;28;19980;-77
2022/08/11 13:40:18;;;;;;;;;;;22.80;65.60;;;;;;4976694;28;19933;-77
2022/08/11 13:42:45;;;;;;;;;;;22.80;65.60;;;;;;4968570;28;19937;-77
2022/08/11 13:45:12;;;;;;;;;;;22.90;65.30;;;;;;4979809;28;19934;-77
2022/08/11 13:47:40;;;;;;;;;;;22.90;65.10;;;;;;4989460;28;20169;-80
2022/08/11 13:50:07;;;;;;;;;;;23.00;65.00;;;;;;4995038;28;20300;-80
2022/08/11 13:52:37;;;;;;;;;;;23.10;65.20;;;;;;4978184;28;19925;-75
2022/08/11 13:55:05;;;;;;;;;;;23.10;65.40;;;;;;4978250;28;19933;-78
2022/08/11 13:57:33;;;;;;;;;;;23.10;65.20;;;;;;4987101;28;19933;-77
2022/08/11 14:00:09;;;;;;;;;;;23.20;65.40;;;;;;4986529;28;19930;-78
2022/08/11 14:02:41;;;;;;;;;;;23.20;65.20;;;;;;4980793;28;19926;-78
2022/08/11 14:05:10;;;;;;;;;;;23.30;64.70;;;;;;4973847;28;19934;-77
2022/08/11 14:07:39;;;;;;;;;;;23.30;64.90;;;;;;4981819;28;19940;-78
2022/08/11 14:10:07;;;;;;;;;;;23.40;65.50;;;;;;4984292;28;19993;-77
2022/08/11 14:15:21;;;;;;;;;;;23.40;64.90;;;;;;4964918;28;20087;-78
2022/08/11 14:17:51;;;;;;;;;;;23.50;64.80;;;;;;4981564;28;19980;-78
2022/08/11 14:20:19;;;;;;;;;;;23.50;64.70;;;;;;4981122;28;19930;-77
2022/08/11 14:22:47;;;;;;;;;;;23.60;64.70;;;;;;4983166;28;19926;-78
2022/08/11 14:25:15;;;;;;;;;;;23.60;64.10;;;;;;4980151;28;19926;-77
2022/08/11 14:27:43;;;;;;;;;;;23.60;64.40;;;;;;4975152;28;19926;-77
2022/08/11 14:30:53;;;;;;;;;;;23.70;64.00;;;;;;4978301;28;20099;-80
2022/08/11 14:32:58;;;;;;;;;;;23.80;64.60;;;;;;4975490;28;20543;-78
2022/08/11 14:35:27;;;;;;;;;;;23.80;64.60;;;;;;4981881;28;19937;-77
2022/08/11 14:37:55;;;;;;;;;;;23.80;64.60;;;;;;4970180;28;20000;-77
2022/08/11 14:48:37;;;;;;;;;;;24.00;63.70;;;;;;4982933;28;19930;-78
2022/08/11 14:51:05;;;;;;;;;;;24.00;64.00;;;;;;4981401;28;19932;-78
2022/08/11 14:53:33;;;;;;;;;;;24.10;63.60;;;;;;4965415;28;20400;-77
2022/08/11 14:58:45;;;;;;;;;;;24.20;64.10;;;;;;4982851;28;19926;-76
2022/08/11 15:03:53;;;;;;;;;;;24.20;63.80;;;;;;4976350;28;19936;-73
2022/08/11 15:06:20;;;;;;;;;;;24.40;59.90;;;;;;4978346;28;19959;-77
2022/08/11 15:08:55;;;;;;;;;;;24.40;58.50;;;;;;4983107;28;19930;-76
2022/08/11 15:14:08;;;;;;;;;;;24.50;60.80;;;;;;4977578;28;20412;-78
2022/08/11 15:19:20;;;;;;;;;;;24.60;62.50;;;;;;4985068;28;19929;-76
2022/08/11 15:24:35;;;;;;;;;;;24.60;62.50;;;;;;4956635;28;19930;-75
2022/08/11 15:38:04;;;;;;;;;;;24.90;57.30;;;;;;4943740;28;19934;-76
2022/08/11 15:46:09;;;;;;;;;;;25.00;55.00;;;;;;4982077;28;19921;-75
2022/08/11 15:48:40;;;;;;;;;;;25.00;56.60;;;;;;4979531;28;20400;-75
2022/08/11 15:51:10;;;;;;;;;;;25.00;56.80;;;;;;4956382;28;19965;-74
2022/08/11 15:53:42;;;;;;;;;;;25.00;55.90;;;;;;4966780;28;19926;-74
2022/08/11 15:56:11;;;;;;;;;;;25.00;56.40;;;;;;4952659;28;19961;-74
2022/08/11 16:04:11;;;;;;;;;;;25.10;54.50;;;;;;4963976;28;20593;-75
2022/08/11 16:06:40;;;;;;;;;;;25.20;54.40;;;;;;4958608;28;20028;-74
2022/08/11 16:09:08;;;;;;;;;;;25.20;54.50;;;;;;4949501;28;19933;-74
2022/08/11 16:11:37;;;;;;;;;;;25.20;54.70;;;;;;4968641;28;19933;-76
2022/08/11 16:16:51;;;;;;;;;;;25.30;55.60;;;;;;4970459;28;19929;-77
2022/08/11 16:19:19;;;;;;;;;;;25.30;55.70;;;;;;4976369;28;19932;-77
2022/08/11 16:21:49;;;;;;;;;;;25.30;55.90;;;;;;4976356;28;19930;-75
2022/08/11 16:24:17;;;;;;;;;;;25.30;56.00;;;;;;4976235;28;19948;-75
2022/08/11 16:26:46;;;;;;;;;;;25.30;56.20;;;;;;4967298;28;19973;-74
2022/08/11 16:29:13;;;;;;;;;;;25.40;56.20;;;;;;4975189;28;20351;-78
2022/08/11 16:31:41;;;;;;;;;;;25.40;56.40;;;;;;4968302;28;19937;-76
2022/08/11 16:38:33;;;;;;;;;;;25.40;56.50;;;;;;4972590;28;19942;-76
2022/08/11 16:39:41;;;;;;;;;;;25.50;56.20;;;;;;4976108;28;19934;-77
2022/08/11 16:47:46;;;;;;;;;;;25.50;55.90;;;;;;4974448;28;20499;-77
2022/08/11 16:50:13;;;;;;;;;;;25.50;56.10;;;;;;4970304;28;19957;-76
2022/08/11 16:52:40;;;;;;;;;;;25.50;56.40;;;;;;4951372;28;19937;-76
2022/08/11 16:55:08;;;;;;;;;;;25.50;53.90;;;;;;4972263;28;19926;-77
2022/08/11 17:00:22;;;;;;;;;;;25.50;53.70;;;;;;4974255;28;19926;-75
2022/08/11 17:13:58;;;;;;;;;;;25.60;54.70;;;;;;4978385;28;19929;-76
2022/08/11 17:16:27;;;;;;;;;;;25.60;54.70;;;;;;4992028;28;20388;-77
2022/08/11 17:18:57;;;;;;;;;;;25.60;55.00;;;;;;4985173;28;20544;-78
2022/08/11 17:21:26;;;;;;;;;;;25.60;55.10;;;;;;4988949;28;19926;-78
2022/08/11 17:23:53;;;;;;;;;;;25.60;55.30;;;;;;4986893;28;20491;-77
2022/08/11 17:26:22;;;;;;;;;;;25.60;55.00;;;;;;4988871;28;19926;-77
2022/08/11 17:28:52;;;;;;;;;;;25.70;55.00;;;;;;4987677;28;20010;-77
2022/08/11 17:36:52;;;;;;;;;;;25.70;55.40;;;;;;4988950;28;20150;-78
2022/08/11 17:39:19;;;;;;;;;;;25.70;55.30;;;;;;4989593;28;19925;-76
2022/08/11 17:50:03;;;;;;;;;;;25.80;55.40;;;;;;4981923;28;19930;-77
2022/08/11 18:00:43;;;;;;;;;;;25.70;54.60;;;;;;4980574;28;20416;-78
2022/08/11 18:03:32;;;;;;;;;;;25.70;54.50;;;;;;4989549;28;20463;-78
2022/08/11 18:06:00;;;;;;;;;;;25.70;54.30;;;;;;4981788;28;19930;-78
